createdAt,value
2023-03-17T00:03:31.476Z,-66
2023-03-17T00:08:35.877Z,-66
2023-03-17T00:13:38.657Z,-65
2023-03-17T00:18:40.139Z,-68
2023-03-17T00:23:46.023Z,-69
2023-03-17T00:28:47.538Z,-66
2023-03-17T00:33:52.347Z,-66
2023-03-17T00:38:54.310Z,-66
2023-03-17T00:43:55.794Z,-66
2023-03-17T00:48:57.999Z,-69
2023-03-17T00:53:59.493Z,-66
2023-03-17T00:59:01.051Z,-66
2023-03-17T01:04:02.621Z,-66
2023-03-17T01:09:05.059Z,-67
2023-03-17T01:14:06.724Z,-67
2023-03-17T01:19:10.099Z,-68
2023-03-17T01:24:12.001Z,-66
2023-03-17T01:29:14.289Z,-66
2023-03-17T01:34:15.937Z,-68
2023-03-17T01:39:17.921Z,-69
2023-03-17T01:44:19.480Z,-68
2023-03-17T01:49:26.749Z,-70
2023-03-17T01:54:40.079Z,-69
2023-03-17T01:59:53.499Z,-69
2023-03-17T02:04:55.430Z,-69
2023-03-17T02:09:58.158Z,-69
2023-03-17T02:14:59.642Z,-70
2023-03-17T02:20:16.208Z,-69
2023-03-17T02:25:20.085Z,-68
2023-03-17T02:30:30.793Z,-69
2023-03-17T02:35:32.958Z,-68
2023-03-17T02:40:34.467Z,-68
2023-03-17T02:45:36.902Z,-67
2023-03-17T02:50:38.458Z,-68
2023-03-17T02:55:39.999Z,-68
2023-03-17T03:00:41.544Z,-69
2023-03-17T03:05:43.359Z,-68
2023-03-17T03:10:45.798Z,-69
2023-03-17T03:15:47.821Z,-68
2023-03-17T03:20:49.429Z,-67
2023-03-17T03:25:51.507Z,-67
2023-03-17T03:30:53.081Z,-69
2023-03-17T03:35:54.631Z,-70
2023-03-17T03:40:56.152Z,-67
2023-03-17T03:45:57.735Z,-69
2023-03-17T03:51:01.067Z,-68
2023-03-17T03:56:02.922Z,-69
2023-03-17T04:01:06.423Z,-68
2023-03-17T04:06:08.277Z,-68
2023-03-17T04:11:09.853Z,-67
2023-03-17T04:16:11.710Z,-67
2023-03-17T04:21:13.860Z,-67
2023-03-17T04:26:17.377Z,-67
2023-03-17T04:31:19.102Z,-67
2023-03-17T04:36:23.896Z,-69
2023-03-17T04:41:25.490Z,-70
2023-03-17T04:46:27.473Z,-68
2023-03-17T04:51:29.041Z,-69
2023-03-17T04:56:31.956Z,-67
2023-03-17T05:01:33.994Z,-70
2023-03-17T05:06:36.057Z,-67
2023-03-17T05:11:37.683Z,-67
2023-03-17T05:16:39.257Z,-67
2023-03-17T05:21:40.762Z,-67
2023-03-17T05:26:42.249Z,-65
2023-03-17T05:31:43.975Z,-67
2023-03-17T05:36:46.476Z,-68
2023-03-17T05:41:48.169Z,-65
2023-03-17T05:46:49.642Z,-66
2023-03-17T05:51:51.216Z,-70
2023-03-17T05:56:52.812Z,-69
2023-03-17T06:01:54.552Z,-71
2023-03-17T06:06:56.066Z,-65
2023-03-17T06:11:57.744Z,-62
2023-03-17T06:16:59.249Z,-63
2023-03-17T06:22:01.012Z,-62
2023-03-17T06:27:02.814Z,-63
2023-03-17T06:32:19.219Z,-61
2023-03-17T06:37:22.655Z,-62
2023-03-17T06:42:24.156Z,-61
2023-03-17T06:47:26.127Z,-64
2023-03-17T06:52:27.801Z,-61
2023-03-17T06:57:29.448Z,-65
2023-03-17T07:02:31.405Z,-64
2023-03-17T07:07:35.520Z,-66
2023-03-17T07:12:37.811Z,-70
2023-03-17T07:17:39.583Z,-73
2023-03-17T07:22:41.883Z,-70
2023-03-17T07:27:43.640Z,-70
2023-03-17T07:32:49.429Z,-70
2023-03-17T07:37:50.959Z,-68
2023-03-17T07:42:54.556Z,-69
2023-03-17T07:47:56.099Z,-69
2023-03-17T07:52:57.798Z,-69
2023-03-17T07:58:00.057Z,-70
2023-03-17T08:03:09.700Z,-68
2023-03-17T08:08:13.226Z,-66
2023-03-17T08:13:14.812Z,-68
2023-03-17T08:18:16.291Z,-69
2023-03-17T08:23:19.215Z,-68
2023-03-17T08:28:21.086Z,-68
2023-03-17T08:33:23.034Z,-70
2023-03-17T08:38:24.620Z,-71
2023-03-17T08:43:26.564Z,-72
2023-03-17T08:48:28.600Z,-70
2023-03-17T08:53:30.252Z,-70
2023-03-17T08:58:31.989Z,-72
2023-03-17T09:03:34.017Z,-73
2023-03-17T09:08:40.559Z,-72
2023-03-17T09:13:42.302Z,-72
2023-03-17T09:18:46.144Z,-72
2023-03-17T09:23:47.656Z,-72
2023-03-17T09:28:49.550Z,-72
2023-03-17T09:33:52.641Z,-72
2023-03-17T09:38:54.353Z,-72
2023-03-17T09:44:21.106Z,-71
2023-03-17T09:49:29.330Z,-73
2023-03-17T09:54:36.505Z,-72
2023-03-17T09:59:45.996Z,-71
2023-03-17T10:04:48.878Z,-71
2023-03-17T10:10:02.923Z,-72
2023-03-17T10:15:23.320Z,-71
2023-03-17T10:20:28.652Z,-71
2023-03-17T10:25:37.405Z,-70
2023-03-17T10:30:39.874Z,-71
2023-03-17T10:35:44.768Z,-70
2023-03-17T10:40:56.477Z,-72
2023-03-17T10:46:07.461Z,-69
2023-03-17T10:51:11.412Z,-71
2023-03-17T10:56:25.198Z,-71
2023-03-17T11:01:34.252Z,-70
2023-03-17T11:06:47.251Z,-71
2023-03-17T11:11:59.140Z,-70
2023-03-17T11:17:16.525Z,-70
2023-03-17T11:22:34.936Z,-72
2023-03-17T11:27:58.921Z,-72
2023-03-17T11:33:22.366Z,-70
2023-03-17T11:38:28.174Z,-70
2023-03-17T11:44:06.567Z,-69
2023-03-17T11:49:20.482Z,-69
2023-03-17T11:54:40.055Z,-70
2023-03-17T11:59:52.340Z,-70
2023-03-17T12:05:06.387Z,-69
2023-03-17T12:10:36.719Z,-70
2023-03-17T12:15:45.591Z,-70
2023-03-17T12:21:07.702Z,-70
2023-03-17T12:26:14.591Z,-70
2023-03-17T12:31:22.816Z,-71
2023-03-17T12:36:25.179Z,-71
2023-03-17T12:42:01.630Z,-71
2023-03-17T12:47:28.026Z,-70
2023-03-17T12:53:31.554Z,-71
2023-03-17T12:58:42.506Z,-71
2023-03-17T13:04:04.286Z,-69
2023-03-17T13:09:30.313Z,-73
2023-03-17T13:14:45.903Z,-72
2023-03-17T13:20:07.680Z,-70
2023-03-17T13:25:37.552Z,-69
2023-03-17T13:30:39.482Z,-66
2023-03-17T13:36:11.852Z,-68
2023-03-17T13:41:40.631Z,-70
2023-03-17T13:46:42.181Z,-67
2023-03-17T13:51:59.424Z,-67
2023-03-17T13:57:22.975Z,-73
2023-03-17T14:02:29.355Z,-70
2023-03-17T14:07:56.865Z,-71
2023-03-17T14:13:37.051Z,-73
2023-03-17T14:18:42.877Z,-74
2023-03-17T14:23:57.154Z,-71
2023-03-17T14:29:00.653Z,-73
2023-03-17T14:34:02.371Z,-69
2023-03-17T14:39:04.489Z,-69
2023-03-17T14:44:09.063Z,-69
2023-03-17T14:49:18.046Z,-68
2023-03-17T14:54:23.293Z,-72
2023-03-17T14:59:33.744Z,-66
2023-03-17T15:04:35.489Z,-68
2023-03-17T15:09:40.239Z,-67
2023-03-17T15:14:43.621Z,-67
2023-03-17T15:19:48.060Z,-69
2023-03-17T15:25:38.256Z,-71
2023-03-17T15:30:48.236Z,-71
2023-03-17T15:35:51.112Z,-74
2023-03-17T15:40:53.162Z,-67
2023-03-17T15:46:02.049Z,-67
2023-03-17T15:51:05.603Z,-68
2023-03-17T15:56:19.040Z,-68
2023-03-17T16:01:21.269Z,-67
2023-03-17T16:06:24.435Z,-70
2023-03-17T16:11:28.679Z,-66
2023-03-17T16:16:42.801Z,-81
2023-03-17T16:21:44.494Z,-69
2023-03-17T16:26:46.360Z,-74
2023-03-17T16:31:50.213Z,-77
2023-03-17T16:36:51.714Z,-74
2023-03-17T16:41:53.557Z,-69
2023-03-17T16:46:55.155Z,-66
2023-03-17T16:51:56.793Z,-68
2023-03-17T16:56:58.593Z,-71
2023-03-17T17:02:01.303Z,-68
2023-03-17T17:07:03.015Z,-68
2023-03-17T17:12:05.641Z,-68
2023-03-17T17:17:07.172Z,-64
2023-03-17T17:22:11.398Z,-66
2023-03-17T17:27:12.906Z,-67
2023-03-17T17:32:18.175Z,-67
2023-03-17T17:37:19.693Z,-65
2023-03-17T17:42:21.265Z,-65
2023-03-17T17:47:23.233Z,-64
2023-03-17T17:52:24.978Z,-69
2023-03-17T17:57:27.142Z,-65
2023-03-17T18:02:28.632Z,-65
2023-03-17T18:07:30.216Z,-60
2023-03-17T18:12:31.778Z,-67
2023-03-17T18:17:33.926Z,-64
2023-03-17T18:22:36.077Z,-69
2023-03-17T18:27:38.651Z,-65
2023-03-17T18:32:42.962Z,-67
2023-03-17T18:37:45.337Z,-61
2023-03-17T18:42:47.422Z,-64
2023-03-17T18:47:49.013Z,-64
2023-03-17T18:52:50.816Z,-57
2023-03-17T18:57:54.573Z,-67
2023-03-17T19:02:56.199Z,-66
2023-03-17T19:07:57.820Z,-64
2023-03-17T19:12:59.957Z,-60
2023-03-17T19:18:01.724Z,-62
2023-03-17T19:23:06.967Z,-60
2023-03-17T19:28:08.961Z,-68
2023-03-17T19:33:18.750Z,-67
2023-03-17T19:38:20.636Z,-68
2023-03-17T19:43:39.064Z,-64
2023-03-17T19:48:41.995Z,-65
2023-03-17T19:53:43.511Z,-72
2023-03-17T19:58:47.332Z,-63
2023-03-17T20:03:49.598Z,-61
2023-03-17T20:08:51.234Z,-64
2023-03-17T20:13:52.942Z,-64
2023-03-17T20:18:54.582Z,-68
2023-03-17T20:23:56.850Z,-62
2023-03-17T20:28:58.353Z,-60
2023-03-17T20:33:59.888Z,-65
2023-03-17T20:39:01.409Z,-66
2023-03-17T20:44:02.922Z,-61
2023-03-17T20:49:05.692Z,-59
2023-03-17T20:54:08.728Z,-65
2023-03-17T20:59:11.955Z,-70
2023-03-17T21:04:16.032Z,-62
2023-03-17T21:09:17.897Z,-66
2023-03-17T21:14:20.017Z,-68
2023-03-17T21:19:22.736Z,-67
2023-03-17T21:24:35.870Z,-66
2023-03-17T21:29:38.418Z,-65
2023-03-17T21:34:40.015Z,-66
2023-03-17T21:39:41.501Z,-66
2023-03-17T21:44:43.347Z,-66
2023-03-17T21:49:44.922Z,-67
2023-03-17T21:54:46.546Z,-67
2023-03-17T21:59:48.251Z,-66
2023-03-17T22:04:49.941Z,-64
2023-03-17T22:09:57.014Z,-65
2023-03-17T22:14:59.180Z,-65
2023-03-17T22:20:00.802Z,-64
2023-03-17T22:25:05.218Z,-63
2023-03-17T22:30:07.631Z,-64
2023-03-17T22:35:09.364Z,-66
2023-03-17T22:40:11.668Z,-66
2023-03-17T22:45:13.306Z,-66
2023-03-17T22:50:15.261Z,-65
2023-03-17T22:55:16.853Z,-66
2023-03-17T23:00:26.126Z,-65
2023-03-17T23:05:28.551Z,-66
2023-03-17T23:10:33.683Z,-66
2023-03-17T23:15:36.482Z,-66
2023-03-17T23:20:40.017Z,-66
2023-03-17T23:25:41.830Z,-66
2023-03-17T23:30:45.799Z,-67
2023-03-17T23:35:50.263Z,-66
2023-03-17T23:40:57.822Z,-65
2023-03-17T23:46:00.601Z,-67
2023-03-17T23:51:03.228Z,-65
2023-03-17T23:56:06.609Z,-66
